sensor_id;sensor_type;location;lat;lon;timestamp;P1;durP1;ratioP1;P2;durP2;ratioP2
39788;SDS011;25478;42.626;23.320;2023-08-06T00:02:13;10.38;;;5.03;;
39788;SDS011;25478;42.626;23.320;2023-08-06T00:04:38;7.18;;;5.10;;
39788;SDS011;25478;42.626;23.320;2023-08-06T00:07:04;8.93;;;5.32;;
39788;SDS011;25478;42.626;23.320;2023-08-06T00:09:30;9.13;;;5.45;;
39788;SDS011;25478;42.626;23.320;2023-08-06T00:11:55;12.88;;;6.13;;
39788;SDS011;25478;42.626;23.320;2023-08-06T00:14:21;9.77;;;6.15;;
39788;SDS011;25478;42.626;23.320;2023-08-06T00:16:46;11.70;;;5.82;;
39788;SDS011;25478;42.626;23.320;2023-08-06T00:19:13;11.82;;;6.15;;
39788;SDS011;25478;42.626;23.320;2023-08-06T00:21:38;9.85;;;6.10;;
39788;SDS011;25478;42.626;23.320;2023-08-06T00:24:04;9.18;;;5.65;;
39788;SDS011;25478;42.626;23.320;2023-08-06T00:26:30;10.50;;;6.00;;
39788;SDS011;25478;42.626;23.320;2023-08-06T00:28:56;9.93;;;5.90;;
39788;SDS011;25478;42.626;23.320;2023-08-06T00:31:21;10.30;;;6.40;;
39788;SDS011;25478;42.626;23.320;2023-08-06T00:33:47;10.98;;;6.40;;
39788;SDS011;25478;42.626;23.320;2023-08-06T00:36:12;11.98;;;6.57;;
39788;SDS011;25478;42.626;23.320;2023-08-06T00:38:38;10.20;;;5.93;;
39788;SDS011;25478;42.626;23.320;2023-08-06T00:41:03;7.82;;;5.05;;
39788;SDS011;25478;42.626;23.320;2023-08-06T00:43:30;8.30;;;4.68;;
39788;SDS011;25478;42.626;23.320;2023-08-06T00:45:55;9.57;;;5.40;;
39788;SDS011;25478;42.626;23.320;2023-08-06T00:48:21;11.00;;;5.20;;
39788;SDS011;25478;42.626;23.320;2023-08-06T00:50:47;7.53;;;4.45;;
39788;SDS011;25478;42.626;23.320;2023-08-06T00:53:13;7.03;;;4.78;;
39788;SDS011;25478;42.626;23.320;2023-08-06T00:55:40;9.20;;;5.00;;
39788;SDS011;25478;42.626;23.320;2023-08-06T00:58:07;10.68;;;4.97;;
39788;SDS011;25478;42.626;23.320;2023-08-06T01:00:33;6.38;;;4.68;;
39788;SDS011;25478;42.626;23.320;2023-08-06T01:02:58;7.03;;;4.95;;
39788;SDS011;25478;42.626;23.320;2023-08-06T01:05:25;9.02;;;4.90;;
39788;SDS011;25478;42.626;23.320;2023-08-06T01:11:05;8.82;;;4.97;;
39788;SDS011;25478;42.626;23.320;2023-08-06T01:13:47;8.48;;;4.93;;
39788;SDS011;25478;42.626;23.320;2023-08-06T01:16:18;7.53;;;4.85;;
39788;SDS011;25478;42.626;23.320;2023-08-06T01:18:49;8.93;;;5.10;;
39788;SDS011;25478;42.626;23.320;2023-08-06T01:21:15;11.43;;;5.25;;
39788;SDS011;25478;42.626;23.320;2023-08-06T01:23:41;8.30;;;4.80;;
39788;SDS011;25478;42.626;23.320;2023-08-06T01:31:41;6.20;;;4.45;;
39788;SDS011;25478;42.626;23.320;2023-08-06T01:34:10;8.20;;;4.82;;
39788;SDS011;25478;42.626;23.320;2023-08-06T01:36:42;8.52;;;5.32;;
39788;SDS011;25478;42.626;23.320;2023-08-06T01:39:08;7.35;;;5.22;;
39788;SDS011;25478;42.626;23.320;2023-08-06T01:41:33;7.53;;;5.05;;
39788;SDS011;25478;42.626;23.320;2023-08-06T01:43:59;7.65;;;5.30;;
39788;SDS011;25478;42.626;23.320;2023-08-06T01:46:24;7.03;;;5.03;;
39788;SDS011;25478;42.626;23.320;2023-08-06T01:48:50;6.63;;;4.72;;
39788;SDS011;25478;42.626;23.320;2023-08-06T01:51:15;7.47;;;4.90;;
39788;SDS011;25478;42.626;23.320;2023-08-06T01:53:41;7.65;;;5.20;;
39788;SDS011;25478;42.626;23.320;2023-08-06T01:56:06;7.03;;;4.80;;
39788;SDS011;25478;42.626;23.320;2023-08-06T01:58:32;6.63;;;4.93;;
39788;SDS011;25478;42.626;23.320;2023-08-06T02:00:58;8.63;;;5.25;;
39788;SDS011;25478;42.626;23.320;2023-08-06T02:03:24;8.32;;;5.85;;
39788;SDS011;25478;42.626;23.320;2023-08-06T02:05:50;11.00;;;7.30;;
39788;SDS011;25478;42.626;23.320;2023-08-06T02:08:15;10.02;;;6.32;;
39788;SDS011;25478;42.626;23.320;2023-08-06T02:10:41;12.45;;;7.05;;
39788;SDS011;25478;42.626;23.320;2023-08-06T02:13:06;11.13;;;6.93;;
39788;SDS011;25478;42.626;23.320;2023-08-06T02:15:32;11.77;;;7.25;;
39788;SDS011;25478;42.626;23.320;2023-08-06T02:17:58;12.55;;;7.32;;
39788;SDS011;25478;42.626;23.320;2023-08-06T02:20:23;10.63;;;7.38;;
39788;SDS011;25478;42.626;23.320;2023-08-06T02:22:49;12.15;;;7.28;;
39788;SDS011;25478;42.626;23.320;2023-08-06T02:25:14;9.45;;;6.97;;
39788;SDS011;25478;42.626;23.320;2023-08-06T02:27:42;9.07;;;6.68;;
39788;SDS011;25478;42.626;23.320;2023-08-06T02:30:07;9.05;;;6.07;;
39788;SDS011;25478;42.626;23.320;2023-08-06T02:32:33;14.93;;;6.85;;
39788;SDS011;25478;42.626;23.320;2023-08-06T02:35:01;14.05;;;7.35;;
39788;SDS011;25478;42.626;23.320;2023-08-06T02:37:27;9.60;;;6.60;;
39788;SDS011;25478;42.626;23.320;2023-08-06T02:39:52;12.38;;;6.45;;
39788;SDS011;25478;42.626;23.320;2023-08-06T02:42:18;10.45;;;5.70;;
39788;SDS011;25478;42.626;23.320;2023-08-06T02:44:43;10.55;;;5.57;;
39788;SDS011;25478;42.626;23.320;2023-08-06T02:47:09;10.20;;;5.50;;
39788;SDS011;25478;42.626;23.320;2023-08-06T02:49:34;9.27;;;5.88;;
39788;SDS011;25478;42.626;23.320;2023-08-06T02:52:00;9.77;;;5.60;;
39788;SDS011;25478;42.626;23.320;2023-08-06T02:54:25;10.13;;;5.60;;
39788;SDS011;25478;42.626;23.320;2023-08-06T02:56:51;8.90;;;5.90;;
39788;SDS011;25478;42.626;23.320;2023-08-06T02:59:29;10.48;;;5.72;;
39788;SDS011;25478;42.626;23.320;2023-08-06T03:02:03;8.82;;;6.05;;
39788;SDS011;25478;42.626;23.320;2023-08-06T03:04:39;9.80;;;5.93;;
39788;SDS011;25478;42.626;23.320;2023-08-06T03:07:05;10.23;;;5.28;;
39788;SDS011;25478;42.626;23.320;2023-08-06T03:09:38;8.23;;;5.40;;
39788;SDS011;25478;42.626;23.320;2023-08-06T03:12:05;7.65;;;4.82;;
39788;SDS011;25478;42.626;23.320;2023-08-06T03:14:32;6.80;;;4.72;;
39788;SDS011;25478;42.626;23.320;2023-08-06T03:16:58;8.68;;;5.22;;
39788;SDS011;25478;42.626;23.320;2023-08-06T03:19:23;6.32;;;4.60;;
39788;SDS011;25478;42.626;23.320;2023-08-06T03:21:49;7.43;;;4.93;;
39788;SDS011;25478;42.626;23.320;2023-08-06T03:24:15;6.97;;;4.60;;
39788;SDS011;25478;42.626;23.320;2023-08-06T03:26:42;7.45;;;4.65;;
39788;SDS011;25478;42.626;23.320;2023-08-06T03:29:09;7.55;;;4.55;;
39788;SDS011;25478;42.626;23.320;2023-08-06T03:31:34;7.72;;;4.78;;
39788;SDS011;25478;42.626;23.320;2023-08-06T03:34:00;8.23;;;5.07;;
39788;SDS011;25478;42.626;23.320;2023-08-06T03:36:28;8.40;;;5.15;;
39788;SDS011;25478;42.626;23.320;2023-08-06T03:38:54;8.75;;;5.20;;
39788;SDS011;25478;42.626;23.320;2023-08-06T03:41:19;7.70;;;5.25;;
39788;SDS011;25478;42.626;23.320;2023-08-06T03:43:45;8.00;;;5.20;;
39788;SDS011;25478;42.626;23.320;2023-08-06T03:46:17;8.82;;;5.40;;
39788;SDS011;25478;42.626;23.320;2023-08-06T03:48:43;9.80;;;5.15;;
39788;SDS011;25478;42.626;23.320;2023-08-06T03:51:08;6.63;;;5.10;;
39788;SDS011;25478;42.626;23.320;2023-08-06T03:53:34;8.85;;;5.30;;
39788;SDS011;25478;42.626;23.320;2023-08-06T03:56:00;11.05;;;5.47;;
39788;SDS011;25478;42.626;23.320;2023-08-06T03:58:26;8.70;;;5.50;;
39788;SDS011;25478;42.626;23.320;2023-08-06T04:01:01;8.20;;;5.22;;
39788;SDS011;25478;42.626;23.320;2023-08-06T04:03:34;8.13;;;5.07;;
39788;SDS011;25478;42.626;23.320;2023-08-06T04:06:01;8.90;;;5.05;;
39788;SDS011;25478;42.626;23.320;2023-08-06T04:08:27;9.82;;;5.80;;
39788;SDS011;25478;42.626;23.320;2023-08-06T04:10:53;7.38;;;5.28;;
39788;SDS011;25478;42.626;23.320;2023-08-06T04:13:19;10.07;;;5.40;;
39788;SDS011;25478;42.626;23.320;2023-08-06T04:15:45;10.70;;;6.00;;
39788;SDS011;25478;42.626;23.320;2023-08-06T04:18:12;10.00;;;5.72;;
39788;SDS011;25478;42.626;23.320;2023-08-06T04:20:44;7.50;;;5.95;;
39788;SDS011;25478;42.626;23.320;2023-08-06T04:23:11;10.07;;;6.67;;
39788;SDS011;25478;42.626;23.320;2023-08-06T04:25:38;8.98;;;6.85;;
39788;SDS011;25478;42.626;23.320;2023-08-06T04:28:04;9.45;;;6.63;;
39788;SDS011;25478;42.626;23.320;2023-08-06T04:30:31;8.82;;;6.40;;
39788;SDS011;25478;42.626;23.320;2023-08-06T04:32:57;11.35;;;7.20;;
39788;SDS011;25478;42.626;23.320;2023-08-06T04:35:24;11.43;;;7.47;;
39788;SDS011;25478;42.626;23.320;2023-08-06T04:37:50;11.05;;;6.95;;
39788;SDS011;25478;42.626;23.320;2023-08-06T04:40:16;10.15;;;6.57;;
39788;SDS011;25478;42.626;23.320;2023-08-06T04:42:42;8.90;;;6.38;;
39788;SDS011;25478;42.626;23.320;2023-08-06T04:45:08;10.18;;;6.65;;
39788;SDS011;25478;42.626;23.320;2023-08-06T04:47:34;8.95;;;6.72;;
39788;SDS011;25478;42.626;23.320;2023-08-06T04:49:59;9.55;;;6.53;;
39788;SDS011;25478;42.626;23.320;2023-08-06T04:52:25;10.07;;;6.75;;
39788;SDS011;25478;42.626;23.320;2023-08-06T04:54:53;11.50;;;7.93;;
39788;SDS011;25478;42.626;23.320;2023-08-06T04:57:19;9.85;;;7.10;;
39788;SDS011;25478;42.626;23.320;2023-08-06T04:59:45;9.65;;;7.25;;
39788;SDS011;25478;42.626;23.320;2023-08-06T05:02:10;13.18;;;8.05;;
39788;SDS011;25478;42.626;23.320;2023-08-06T05:04:36;7.75;;;6.15;;
39788;SDS011;25478;42.626;23.320;2023-08-06T05:07:01;9.65;;;6.95;;
39788;SDS011;25478;42.626;23.320;2023-08-06T05:09:27;10.02;;;6.97;;
39788;SDS011;25478;42.626;23.320;2023-08-06T05:11:52;9.93;;;7.03;;
39788;SDS011;25478;42.626;23.320;2023-08-06T05:14:18;9.98;;;7.15;;
39788;SDS011;25478;42.626;23.320;2023-08-06T05:16:43;11.13;;;6.95;;
39788;SDS011;25478;42.626;23.320;2023-08-06T05:19:09;10.40;;;7.57;;
39788;SDS011;25478;42.626;23.320;2023-08-06T05:21:34;13.68;;;9.85;;
39788;SDS011;25478;42.626;23.320;2023-08-06T05:24:00;17.20;;;13.13;;
39788;SDS011;25478;42.626;23.320;2023-08-06T05:26:25;17.98;;;13.82;;
39788;SDS011;25478;42.626;23.320;2023-08-06T05:28:51;16.50;;;13.15;;
39788;SDS011;25478;42.626;23.320;2023-08-06T05:31:17;15.13;;;11.35;;
39788;SDS011;25478;42.626;23.320;2023-08-06T05:33:43;14.50;;;11.38;;
39788;SDS011;25478;42.626;23.320;2023-08-06T05:36:08;15.32;;;12.60;;
39788;SDS011;25478;42.626;23.320;2023-08-06T05:38:34;15.65;;;11.05;;
39788;SDS011;25478;42.626;23.320;2023-08-06T05:40:59;14.40;;;10.38;;
39788;SDS011;25478;42.626;23.320;2023-08-06T05:43:25;11.70;;;10.00;;
39788;SDS011;25478;42.626;23.320;2023-08-06T05:45:50;14.35;;;10.45;;
39788;SDS011;25478;42.626;23.320;2023-08-06T05:48:16;12.82;;;9.73;;
39788;SDS011;25478;42.626;23.320;2023-08-06T05:50:42;15.18;;;11.32;;
39788;SDS011;25478;42.626;23.320;2023-08-06T05:53:07;18.40;;;12.50;;
39788;SDS011;25478;42.626;23.320;2023-08-06T05:55:33;15.75;;;11.98;;
39788;SDS011;25478;42.626;23.320;2023-08-06T05:57:59;21.25;;;15.27;;
39788;SDS011;25478;42.626;23.320;2023-08-06T06:00:24;24.92;;;20.33;;
39788;SDS011;25478;42.626;23.320;2023-08-06T06:02:50;25.35;;;21.42;;
39788;SDS011;25478;42.626;23.320;2023-08-06T06:05:17;24.73;;;20.15;;
39788;SDS011;25478;42.626;23.320;2023-08-06T06:07:42;21.00;;;18.42;;
39788;SDS011;25478;42.626;23.320;2023-08-06T06:10:08;21.33;;;17.48;;
39788;SDS011;25478;42.626;23.320;2023-08-06T06:12:34;16.90;;;14.52;;
39788;SDS011;25478;42.626;23.320;2023-08-06T06:14:59;18.02;;;14.02;;
39788;SDS011;25478;42.626;23.320;2023-08-06T06:17:29;19.10;;;14.75;;
39788;SDS011;25478;42.626;23.320;2023-08-06T06:19:54;16.20;;;14.57;;
39788;SDS011;25478;42.626;23.320;2023-08-06T06:22:19;16.10;;;14.38;;
39788;SDS011;25478;42.626;23.320;2023-08-06T06:24:45;18.60;;;14.52;;
39788;SDS011;25478;42.626;23.320;2023-08-06T06:27:11;18.02;;;13.95;;
39788;SDS011;25478;42.626;23.320;2023-08-06T06:29:36;20.63;;;15.30;;
39788;SDS011;25478;42.626;23.320;2023-08-06T06:32:02;20.65;;;14.40;;
39788;SDS011;25478;42.626;23.320;2023-08-06T06:34:27;18.27;;;13.73;;
39788;SDS011;25478;42.626;23.320;2023-08-06T06:36:53;18.45;;;13.45;;
39788;SDS011;25478;42.626;23.320;2023-08-06T06:39:18;15.32;;;12.20;;
39788;SDS011;25478;42.626;23.320;2023-08-06T06:41:45;17.10;;;13.07;;
39788;SDS011;25478;42.626;23.320;2023-08-06T06:44:21;15.50;;;11.85;;
39788;SDS011;25478;42.626;23.320;2023-08-06T06:46:47;17.27;;;12.63;;
39788;SDS011;25478;42.626;23.320;2023-08-06T06:49:12;18.58;;;13.90;;
39788;SDS011;25478;42.626;23.320;2023-08-06T06:51:38;18.25;;;13.93;;
39788;SDS011;25478;42.626;23.320;2023-08-06T06:54:03;18.50;;;13.68;;
39788;SDS011;25478;42.626;23.320;2023-08-06T06:56:29;14.73;;;11.18;;
39788;SDS011;25478;42.626;23.320;2023-08-06T06:58:54;16.45;;;12.15;;
39788;SDS011;25478;42.626;23.320;2023-08-06T07:01:20;15.85;;;11.82;;
39788;SDS011;25478;42.626;23.320;2023-08-06T07:03:46;15.13;;;11.93;;
39788;SDS011;25478;42.626;23.320;2023-08-06T07:06:11;15.40;;;11.80;;
39788;SDS011;25478;42.626;23.320;2023-08-06T07:08:37;14.52;;;11.68;;
39788;SDS011;25478;42.626;23.320;2023-08-06T07:11:04;14.30;;;11.68;;
39788;SDS011;25478;42.626;23.320;2023-08-06T07:13:30;12.85;;;10.05;;
39788;SDS011;25478;42.626;23.320;2023-08-06T07:15:57;12.23;;;8.50;;
39788;SDS011;25478;42.626;23.320;2023-08-06T07:18:23;8.82;;;6.13;;
39788;SDS011;25478;42.626;23.320;2023-08-06T07:20:52;7.80;;;5.82;;
39788;SDS011;25478;42.626;23.320;2023-08-06T07:23:21;7.22;;;4.80;;
39788;SDS011;25478;42.626;23.320;2023-08-06T07:25:49;5.93;;;3.92;;
39788;SDS011;25478;42.626;23.320;2023-08-06T07:28:15;7.40;;;5.03;;
39788;SDS011;25478;42.626;23.320;2023-08-06T07:30:42;8.00;;;3.80;;
39788;SDS011;25478;42.626;23.320;2023-08-06T07:33:08;4.68;;;3.30;;
39788;SDS011;25478;42.626;23.320;2023-08-06T07:35:34;5.72;;;3.53;;
39788;SDS011;25478;42.626;23.320;2023-08-06T07:38:00;6.38;;;3.22;;
39788;SDS011;25478;42.626;23.320;2023-08-06T07:40:26;5.53;;;3.00;;
39788;SDS011;25478;42.626;23.320;2023-08-06T07:42:51;4.55;;;3.13;;
39788;SDS011;25478;42.626;23.320;2023-08-06T07:45:17;6.97;;;3.20;;
39788;SDS011;25478;42.626;23.320;2023-08-06T07:47:42;4.80;;;3.47;;
39788;SDS011;25478;42.626;23.320;2023-08-06T07:50:08;5.63;;;3.28;;
39788;SDS011;25478;42.626;23.320;2023-08-06T07:52:34;5.68;;;3.00;;
39788;SDS011;25478;42.626;23.320;2023-08-06T07:55:00;6.38;;;3.00;;
39788;SDS011;25478;42.626;23.320;2023-08-06T07:57:30;4.40;;;2.70;;
39788;SDS011;25478;42.626;23.320;2023-08-06T07:59:56;4.65;;;2.78;;
39788;SDS011;25478;42.626;23.320;2023-08-06T08:02:21;5.95;;;3.30;;
39788;SDS011;25478;42.626;23.320;2023-08-06T08:04:47;4.90;;;3.65;;
39788;SDS011;25478;42.626;23.320;2023-08-06T08:07:12;7.10;;;3.75;;
39788;SDS011;25478;42.626;23.320;2023-08-06T08:09:38;4.88;;;3.67;;
39788;SDS011;25478;42.626;23.320;2023-08-06T08:12:04;5.13;;;3.28;;
39788;SDS011;25478;42.626;23.320;2023-08-06T08:14:30;6.30;;;3.92;;
39788;SDS011;25478;42.626;23.320;2023-08-06T08:17:01;5.25;;;3.60;;
39788;SDS011;25478;42.626;23.320;2023-08-06T08:19:30;5.65;;;4.05;;
39788;SDS011;25478;42.626;23.320;2023-08-06T08:21:56;6.82;;;5.20;;
39788;SDS011;25478;42.626;23.320;2023-08-06T08:24:22;7.07;;;5.40;;
39788;SDS011;25478;42.626;23.320;2023-08-06T08:26:49;7.30;;;5.40;;
39788;SDS011;25478;42.626;23.320;2023-08-06T08:29:21;7.47;;;6.40;;
39788;SDS011;25478;42.626;23.320;2023-08-06T08:31:47;7.70;;;6.65;;
39788;SDS011;25478;42.626;23.320;2023-08-06T08:34:15;7.40;;;6.50;;
39788;SDS011;25478;42.626;23.320;2023-08-06T08:36:43;8.15;;;6.45;;
39788;SDS011;25478;42.626;23.320;2023-08-06T08:39:09;7.80;;;6.40;;
39788;SDS011;25478;42.626;23.320;2023-08-06T08:41:36;8.65;;;6.70;;
39788;SDS011;25478;42.626;23.320;2023-08-06T08:44:02;6.65;;;5.57;;
39788;SDS011;25478;42.626;23.320;2023-08-06T08:46:30;8.80;;;6.30;;
39788;SDS011;25478;42.626;23.320;2023-08-06T08:48:57;9.65;;;6.05;;
39788;SDS011;25478;42.626;23.320;2023-08-06T08:51:26;7.18;;;5.70;;
39788;SDS011;25478;42.626;23.320;2023-08-06T08:53:53;7.50;;;4.70;;
39788;SDS011;25478;42.626;23.320;2023-08-06T08:56:21;6.15;;;4.80;;
39788;SDS011;25478;42.626;23.320;2023-08-06T08:58:47;6.68;;;4.25;;
39788;SDS011;25478;42.626;23.320;2023-08-06T09:01:13;4.70;;;3.38;;
39788;SDS011;25478;42.626;23.320;2023-08-06T09:03:40;4.30;;;3.33;;
39788;SDS011;25478;42.626;23.320;2023-08-06T09:06:06;6.15;;;3.40;;
39788;SDS011;25478;42.626;23.320;2023-08-06T09:08:37;6.22;;;4.05;;
39788;SDS011;25478;42.626;23.320;2023-08-06T09:11:08;4.70;;;4.03;;
39788;SDS011;25478;42.626;23.320;2023-08-06T09:13:36;4.50;;;3.30;;
39788;SDS011;25478;42.626;23.320;2023-08-06T09:16:02;5.80;;;3.45;;
39788;SDS011;25478;42.626;23.320;2023-08-06T09:18:29;6.00;;;3.92;;
39788;SDS011;25478;42.626;23.320;2023-08-06T09:20:56;5.70;;;3.88;;
39788;SDS011;25478;42.626;23.320;2023-08-06T09:23:31;5.63;;;4.40;;
39788;SDS011;25478;42.626;23.320;2023-08-06T09:25:58;5.68;;;4.15;;
39788;SDS011;25478;42.626;23.320;2023-08-06T09:28:31;6.05;;;3.63;;
39788;SDS011;25478;42.626;23.320;2023-08-06T09:31:03;6.55;;;4.40;;
39788;SDS011;25478;42.626;23.320;2023-08-06T09:33:29;6.30;;;4.00;;
39788;SDS011;25478;42.626;23.320;2023-08-06T09:35:54;5.75;;;4.03;;
39788;SDS011;25478;42.626;23.320;2023-08-06T09:38:20;4.93;;;3.72;;
39788;SDS011;25478;42.626;23.320;2023-08-06T09:40:45;5.20;;;3.67;;
39788;SDS011;25478;42.626;23.320;2023-08-06T09:43:12;4.88;;;3.63;;
39788;SDS011;25478;42.626;23.320;2023-08-06T09:45:38;5.97;;;3.70;;
39788;SDS011;25478;42.626;23.320;2023-08-06T09:48:07;4.80;;;3.88;;
39788;SDS011;25478;42.626;23.320;2023-08-06T09:50:35;5.78;;;4.22;;
39788;SDS011;25478;42.626;23.320;2023-08-06T09:53:02;5.68;;;4.57;;
39788;SDS011;25478;42.626;23.320;2023-08-06T09:55:32;6.47;;;4.90;;
39788;SDS011;25478;42.626;23.320;2023-08-06T09:57:58;6.60;;;4.53;;
39788;SDS011;25478;42.626;23.320;2023-08-06T10:00:25;7.88;;;5.03;;
39788;SDS011;25478;42.626;23.320;2023-08-06T10:02:51;5.63;;;4.28;;
39788;SDS011;25478;42.626;23.320;2023-08-06T10:05:20;4.35;;;3.85;;
39788;SDS011;25478;42.626;23.320;2023-08-06T10:07:46;8.05;;;4.50;;
39788;SDS011;25478;42.626;23.320;2023-08-06T10:10:12;6.45;;;4.13;;
39788;SDS011;25478;42.626;23.320;2023-08-06T10:12:46;6.78;;;4.65;;
39788;SDS011;25478;42.626;23.320;2023-08-06T10:15:16;6.68;;;4.50;;
39788;SDS011;25478;42.626;23.320;2023-08-06T10:17:45;5.25;;;4.20;;
39788;SDS011;25478;42.626;23.320;2023-08-06T10:20:13;7.43;;;3.92;;
39788;SDS011;25478;42.626;23.320;2023-08-06T10:22:42;7.07;;;3.80;;
39788;SDS011;25478;42.626;23.320;2023-08-06T10:25:09;5.38;;;3.92;;
39788;SDS011;25478;42.626;23.320;2023-08-06T10:27:39;5.10;;;3.55;;
39788;SDS011;25478;42.626;23.320;2023-08-06T10:30:25;4.80;;;3.33;;
39788;SDS011;25478;42.626;23.320;2023-08-06T10:32:55;4.22;;;3.40;;
39788;SDS011;25478;42.626;23.320;2023-08-06T10:38:21;6.22;;;3.75;;
39788;SDS011;25478;42.626;23.320;2023-08-06T10:43:29;6.25;;;3.90;;
39788;SDS011;25478;42.626;23.320;2023-08-06T10:46:01;6.20;;;4.80;;
39788;SDS011;25478;42.626;23.320;2023-08-06T10:48:32;5.40;;;4.45;;
39788;SDS011;25478;42.626;23.320;2023-08-06T10:51:11;7.05;;;5.18;;
39788;SDS011;25478;42.626;23.320;2023-08-06T10:53:41;8.15;;;5.32;;
39788;SDS011;25478;42.626;23.320;2023-08-06T10:56:12;7.30;;;4.65;;
39788;SDS011;25478;42.626;23.320;2023-08-06T10:58:39;8.52;;;5.72;;
39788;SDS011;25478;42.626;23.320;2023-08-06T11:01:04;6.40;;;4.30;;
39788;SDS011;25478;42.626;23.320;2023-08-06T11:03:31;7.13;;;4.75;;
39788;SDS011;25478;42.626;23.320;2023-08-06T11:05:58;6.82;;;5.00;;
39788;SDS011;25478;42.626;23.320;2023-08-06T11:08:27;6.95;;;4.65;;
39788;SDS011;25478;42.626;23.320;2023-08-06T11:10:54;7.35;;;4.78;;
39788;SDS011;25478;42.626;23.320;2023-08-06T11:13:20;6.60;;;4.60;;
39788;SDS011;25478;42.626;23.320;2023-08-06T11:15:46;6.70;;;4.60;;
39788;SDS011;25478;42.626;23.320;2023-08-06T11:18:12;5.25;;;4.38;;
39788;SDS011;25478;42.626;23.320;2023-08-06T11:20:39;8.43;;;4.25;;
39788;SDS011;25478;42.626;23.320;2023-08-06T11:23:05;6.20;;;4.20;;
39788;SDS011;25478;42.626;23.320;2023-08-06T11:25:53;5.97;;;4.35;;
39788;SDS011;25478;42.626;23.320;2023-08-06T11:28:19;4.63;;;2.90;;
39788;SDS011;25478;42.626;23.320;2023-08-06T11:30:46;4.03;;;2.65;;
39788;SDS011;25478;42.626;23.320;2023-08-06T11:33:12;5.60;;;3.45;;
39788;SDS011;25478;42.626;23.320;2023-08-06T11:35:38;4.68;;;3.25;;
39788;SDS011;25478;42.626;23.320;2023-08-06T11:38:05;5.45;;;3.22;;
39788;SDS011;25478;42.626;23.320;2023-08-06T11:40:31;5.88;;;3.60;;
39788;SDS011;25478;42.626;23.320;2023-08-06T11:42:57;6.38;;;3.90;;
39788;SDS011;25478;42.626;23.320;2023-08-06T11:45:26;6.93;;;4.35;;
39788;SDS011;25478;42.626;23.320;2023-08-06T11:47:52;6.55;;;4.30;;
39788;SDS011;25478;42.626;23.320;2023-08-06T11:50:21;6.78;;;4.35;;
39788;SDS011;25478;42.626;23.320;2023-08-06T11:52:58;8.18;;;4.68;;
39788;SDS011;25478;42.626;23.320;2023-08-06T11:55:25;8.30;;;5.60;;
39788;SDS011;25478;42.626;23.320;2023-08-06T11:57:53;8.82;;;5.57;;
39788;SDS011;25478;42.626;23.320;2023-08-06T12:00:19;7.60;;;5.60;;
39788;SDS011;25478;42.626;23.320;2023-08-06T12:02:48;7.03;;;5.40;;
39788;SDS011;25478;42.626;23.320;2023-08-06T12:05:16;5.90;;;4.38;;
39788;SDS011;25478;42.626;23.320;2023-08-06T12:07:47;6.30;;;4.43;;
39788;SDS011;25478;42.626;23.320;2023-08-06T12:10:15;6.40;;;4.47;;
39788;SDS011;25478;42.626;23.320;2023-08-06T12:12:42;5.88;;;4.72;;
39788;SDS011;25478;42.626;23.320;2023-08-06T12:15:08;10.07;;;4.40;;
39788;SDS011;25478;42.626;23.320;2023-08-06T12:17:35;7.85;;;4.50;;
39788;SDS011;25478;42.626;23.320;2023-08-06T12:20:01;7.40;;;4.53;;
39788;SDS011;25478;42.626;23.320;2023-08-06T12:22:31;7.78;;;5.45;;
39788;SDS011;25478;42.626;23.320;2023-08-06T12:25:01;7.25;;;5.60;;
39788;SDS011;25478;42.626;23.320;2023-08-06T12:27:34;8.55;;;5.68;;
39788;SDS011;25478;42.626;23.320;2023-08-06T12:30:00;6.85;;;5.55;;
39788;SDS011;25478;42.626;23.320;2023-08-06T12:32:26;7.75;;;5.75;;
39788;SDS011;25478;42.626;23.320;2023-08-06T12:34:52;8.73;;;5.60;;
39788;SDS011;25478;42.626;23.320;2023-08-06T12:37:17;9.45;;;5.75;;
39788;SDS011;25478;42.626;23.320;2023-08-06T12:39:43;8.70;;;5.95;;
39788;SDS011;25478;42.626;23.320;2023-08-06T12:42:08;9.38;;;6.03;;
39788;SDS011;25478;42.626;23.320;2023-08-06T12:44:35;7.82;;;5.72;;
39788;SDS011;25478;42.626;23.320;2023-08-06T12:47:01;8.50;;;5.85;;
39788;SDS011;25478;42.626;23.320;2023-08-06T12:49:27;7.75;;;5.80;;
39788;SDS011;25478;42.626;23.320;2023-08-06T12:51:54;10.15;;;6.13;;
39788;SDS011;25478;42.626;23.320;2023-08-06T12:54:21;10.73;;;6.38;;
39788;SDS011;25478;42.626;23.320;2023-08-06T12:56:47;9.07;;;6.15;;
39788;SDS011;25478;42.626;23.320;2023-08-06T12:59:14;7.80;;;6.07;;
39788;SDS011;25478;42.626;23.320;2023-08-06T13:01:42;9.02;;;6.50;;
39788;SDS011;25478;42.626;23.320;2023-08-06T13:04:08;8.23;;;5.50;;
39788;SDS011;25478;42.626;23.320;2023-08-06T13:06:34;6.82;;;5.43;;
39788;SDS011;25478;42.626;23.320;2023-08-06T13:09:08;7.43;;;5.32;;
39788;SDS011;25478;42.626;23.320;2023-08-06T13:11:35;7.03;;;5.45;;
39788;SDS011;25478;42.626;23.320;2023-08-06T13:14:10;5.22;;;4.72;;
39788;SDS011;25478;42.626;23.320;2023-08-06T13:16:38;8.50;;;4.95;;
39788;SDS011;25478;42.626;23.320;2023-08-06T13:19:05;7.18;;;5.13;;
39788;SDS011;25478;42.626;23.320;2023-08-06T13:21:32;7.95;;;5.28;;
39788;SDS011;25478;42.626;23.320;2023-08-06T13:24:03;7.38;;;4.88;;
39788;SDS011;25478;42.626;23.320;2023-08-06T13:26:30;7.85;;;5.47;;
39788;SDS011;25478;42.626;23.320;2023-08-06T13:28:59;6.72;;;5.30;;
39788;SDS011;25478;42.626;23.320;2023-08-06T13:31:25;9.10;;;5.90;;
39788;SDS011;25478;42.626;23.320;2023-08-06T13:33:52;8.02;;;5.45;;
39788;SDS011;25478;42.626;23.320;2023-08-06T13:36:21;8.13;;;6.05;;
39788;SDS011;25478;42.626;23.320;2023-08-06T13:38:47;6.45;;;5.75;;
39788;SDS011;25478;42.626;23.320;2023-08-06T13:41:12;8.77;;;6.03;;
39788;SDS011;25478;42.626;23.320;2023-08-06T13:43:38;8.48;;;6.40;;
39788;SDS011;25478;42.626;23.320;2023-08-06T13:46:04;7.40;;;6.32;;
39788;SDS011;25478;42.626;23.320;2023-08-06T13:48:30;9.07;;;6.60;;
39788;SDS011;25478;42.626;23.320;2023-08-06T13:50:55;7.88;;;6.68;;
39788;SDS011;25478;42.626;23.320;2023-08-06T13:53:21;25.30;;;16.40;;
39788;SDS011;25478;42.626;23.320;2023-08-06T13:55:46;12.52;;;8.23;;
39788;SDS011;25478;42.626;23.320;2023-08-06T13:58:12;10.10;;;7.53;;
39788;SDS011;25478;42.626;23.320;2023-08-06T14:00:37;8.52;;;5.95;;
39788;SDS011;25478;42.626;23.320;2023-08-06T14:03:03;10.05;;;5.95;;
39788;SDS011;25478;42.626;23.320;2023-08-06T14:05:28;6.38;;;5.13;;
39788;SDS011;25478;42.626;23.320;2023-08-06T14:07:54;7.65;;;6.15;;
39788;SDS011;25478;42.626;23.320;2023-08-06T14:10:21;7.13;;;5.35;;
39788;SDS011;25478;42.626;23.320;2023-08-06T14:12:47;7.07;;;5.15;;
39788;SDS011;25478;42.626;23.320;2023-08-06T14:15:13;7.10;;;5.10;;
39788;SDS011;25478;42.626;23.320;2023-08-06T14:17:38;7.15;;;5.10;;
39788;SDS011;25478;42.626;23.320;2023-08-06T14:20:05;7.40;;;4.78;;
39788;SDS011;25478;42.626;23.320;2023-08-06T14:22:32;5.60;;;4.85;;
39788;SDS011;25478;42.626;23.320;2023-08-06T14:24:58;6.38;;;4.43;;
39788;SDS011;25478;42.626;23.320;2023-08-06T14:27:24;6.93;;;4.85;;
39788;SDS011;25478;42.626;23.320;2023-08-06T14:29:50;6.35;;;4.10;;
39788;SDS011;25478;42.626;23.320;2023-08-06T14:32:15;6.97;;;4.88;;
39788;SDS011;25478;42.626;23.320;2023-08-06T14:34:43;6.15;;;4.28;;
39788;SDS011;25478;42.626;23.320;2023-08-06T14:37:09;6.07;;;5.13;;
39788;SDS011;25478;42.626;23.320;2023-08-06T14:39:36;5.78;;;4.95;;
39788;SDS011;25478;42.626;23.320;2023-08-06T14:42:03;7.75;;;5.00;;